Time;durP1;ratioP1;P1;durP2;ratioP2;P2;SDS_P1;SDS_P2;PMS_P1;PMS_P2;Temp;Humidity;BMP_temperature;BMP_pressure;BME280_temperature;BME280_humidity;BME280_pressure;Samples;Min_cycle;Max_cycle;Signal;HPM_P1;HPM_P2
2023/06/28 05:50:13;;;;;;;6.00;1.85;;;;;;;;;;10575256;27;20369;-84
2023/06/28 05:55:14;;;;;;;3.38;1.60;;;;;;;;;;10546075;28;20100;-84
2023/06/28 06:05:57;;;;;;;2.45;1.30;;;;;;;;;;10624055;28;20043;-81
2023/06/28 06:10:58;;;;;;;3.83;2.47;;;;;;;;;;10605795;28;20032;-80
2023/06/28 06:16:05;;;;;;;7.80;4.18;;;;;;;;;;10624179;28;20055;-80
2023/06/28 06:21:06;;;;;;;12.43;4.00;;;;;;;;;;10620296;28;20414;-80
2023/06/28 06:26:07;;;;;;;7.20;3.60;;;;;;;;;;10608023;28;20031;-80
2023/06/28 06:31:13;;;;;;;5.55;3.15;;;;;;;;;;10602005;28;20029;-80
2023/06/28 06:36:14;;;;;;;3.60;2.47;;;;;;;;;;10622150;28;20326;-80
2023/06/28 06:41:15;;;;;;;5.05;2.65;;;;;;;;;;10602336;28;20074;-80
2023/06/28 06:46:18;;;;;;;4.30;2.40;;;;;;;;;;10602345;28;20031;-80
2023/06/28 06:51:19;;;;;;;5.07;2.20;;;;;;;;;;10602581;28;20031;-80
2023/06/28 06:56:24;;;;;;;5.03;2.10;;;;;;;;;;10602313;28;20435;-80
2023/06/28 07:01:29;;;;;;;6.88;2.20;;;;;;;;;;10573591;28;20040;-84
2023/06/28 07:06:31;;;;;;;4.10;2.03;;;;;;;;;;10556277;28;20028;-85
2023/06/28 07:11:32;;;;;;;3.83;1.90;;;;;;;;;;10573057;28;20093;-88
2023/06/28 07:16:34;;;;;;;4.82;2.10;;;;;;;;;;10571777;28;20024;-87
2023/06/28 07:21:35;;;;;;;7.57;3.15;;;;;;;;;;10588432;28;20030;-88
2023/06/28 07:26:36;;;;;;;6.30;4.00;;;;;;;;;;10571213;28;20370;-88
2023/06/28 07:31:37;;;;;;;7.85;5.00;;;;;;;;;;10572299;28;20031;-87
2023/06/28 08:05:09;;;;;;;11.90;8.85;;;;;;;;;;10588017;28;20027;-88
2023/06/28 08:10:38;;;;;;;15.00;12.05;;;;;;;;;;10585723;28;20024;-89
2023/06/28 08:16:12;;;;;;;10.85;7.85;;;;;;;;;;10569667;28;20084;-89
2023/06/28 08:27:37;;;;;;;7.65;4.78;;;;;;;;;;10586869;28;20414;-88
2023/06/28 08:38:51;;;;;;;6.43;4.30;;;;;;;;;;10415530;28;20061;-88
2023/06/28 08:49:38;;;;;;;7.57;5.28;;;;;;;;;;10419171;28;20096;-88
2023/06/28 09:06:02;;;;;;;6.70;4.43;;;;;;;;;;10529634;28;20055;-88
2023/06/28 09:11:03;;;;;;;9.50;5.32;;;;;;;;;;10570506;28;20030;-88
2023/06/28 09:16:09;;;;;;;6.57;4.75;;;;;;;;;;10571766;28;20055;-88
2023/06/28 09:21:10;;;;;;;7.47;5.28;;;;;;;;;;10604151;28;20118;-88
2023/06/28 09:26:13;;;;;;;8.35;5.35;;;;;;;;;;10604943;28;20031;-88
2023/06/28 09:31:18;;;;;;;8.43;6.43;;;;;;;;;;10609287;28;20028;-88
2023/06/28 09:36:25;;;;;;;6.32;4.72;;;;;;;;;;10573434;28;20050;-89
2023/06/28 09:41:36;;;;;;;8.38;5.93;;;;;;;;;;10569927;28;20020;-89
2023/06/28 09:46:45;;;;;;;11.63;8.75;;;;;;;;;;10569043;28;20034;-89
2023/06/28 09:51:46;;;;;;;14.80;10.38;;;;;;;;;;10568492;28;20062;-88
2023/06/28 09:56:56;;;;;;;9.60;7.78;;;;;;;;;;10567938;28;20026;-89
2023/06/28 10:02:07;;;;;;;9.63;8.15;;;;;;;;;;10567616;28;20115;-89
2023/06/28 10:07:11;;;;;;;9.65;7.43;;;;;;;;;;10574760;28;20028;-89
2023/06/28 10:12:25;;;;;;;8.18;5.72;;;;;;;;;;10591539;28;20028;-88
2023/06/28 10:17:28;;;;;;;8.70;6.20;;;;;;;;;;10587061;28;20085;-86
2023/06/28 10:22:34;;;;;;;10.45;5.90;;;;;;;;;;10571006;28;20473;-90
2023/06/28 10:27:36;;;;;;;6.75;4.80;;;;;;;;;;10570201;28;20106;-90
2023/06/28 10:32:44;;;;;;;8.10;6.03;;;;;;;;;;10583609;28;20493;-87
2023/06/28 10:38:17;;;;;;;9.00;5.57;;;;;;;;;;10577455;28;20478;-89
2023/06/28 10:43:26;;;;;;;10.55;6.70;;;;;;;;;;10595166;28;20020;-86
2023/06/28 10:48:31;;;;;;;12.57;6.47;;;;;;;;;;10574678;28;20028;-88
2023/06/28 10:53:40;;;;;;;10.88;6.70;;;;;;;;;;10586611;28;20030;-90
2023/06/28 10:58:42;;;;;;;11.40;6.75;;;;;;;;;;10575283;28;20024;-88
2023/06/28 11:03:44;;;;;;;13.32;6.88;;;;;;;;;;10575121;28;20032;-88
2023/06/28 11:14:21;;;;;;;7.72;4.90;;;;;;;;;;10596755;28;20024;-88
2023/06/28 11:19:22;;;;;;;7.50;4.25;;;;;;;;;;10580440;28;20051;-88
2023/06/28 11:24:30;;;;;;;8.15;4.15;;;;;;;;;;10585910;27;20370;-87
2023/06/28 11:29:31;;;;;;;6.78;4.10;;;;;;;;;;10570442;28;20083;-88
2023/06/28 11:34:33;;;;;;;7.88;4.90;;;;;;;;;;10570859;28;20020;-87
2023/06/28 11:39:36;;;;;;;7.72;4.40;;;;;;;;;;10572013;28;20038;-86
2023/06/28 11:44:47;;;;;;;7.28;3.75;;;;;;;;;;10570492;28;20481;-86
2023/06/28 11:49:48;;;;;;;5.93;3.83;;;;;;;;;;10570258;28;20027;-87
2023/06/28 11:54:50;;;;;;;6.45;3.30;;;;;;;;;;10571189;28;20475;-87
2023/06/28 11:59:54;;;;;;;6.43;3.58;;;;;;;;;;10591215;27;20035;-86
2023/06/28 12:04:59;;;;;;;5.80;2.97;;;;;;;;;;10597870;27;20023;-87
2023/06/28 12:10:00;;;;;;;5.90;2.90;;;;;;;;;;10570058;28;20154;-87
2023/06/28 12:15:02;;;;;;;5.20;3.08;;;;;;;;;;10571973;28;20115;-86
2023/06/28 12:20:03;;;;;;;8.02;3.60;;;;;;;;;;10567996;28;20027;-87
2023/06/28 12:25:04;;;;;;;7.68;3.30;;;;;;;;;;10568457;28;20111;-86
2023/06/28 12:30:15;;;;;;;7.45;3.17;;;;;;;;;;10568874;28;20085;-87
2023/06/28 12:35:23;;;;;;;6.05;3.53;;;;;;;;;;10593004;28;20024;-87
2023/06/28 12:40:28;;;;;;;7.93;3.10;;;;;;;;;;10568613;28;20027;-87
2023/06/28 12:45:31;;;;;;;5.97;3.03;;;;;;;;;;10567552;28;20169;-85
2023/06/28 12:50:32;;;;;;;5.70;3.80;;;;;;;;;;10567040;28;20157;-87
2023/06/28 12:55:42;;;;;;;4.70;3.13;;;;;;;;;;10567167;28;20031;-90
2023/06/28 13:00:44;;;;;;;6.72;3.30;;;;;;;;;;10568832;28;20016;-85
2023/06/28 13:05:45;;;;;;;6.97;3.97;;;;;;;;;;10570329;28;20032;-85
2023/06/28 13:10:46;;;;;;;5.50;3.30;;;;;;;;;;10569288;28;20077;-85
2023/06/28 13:15:47;;;;;;;6.90;3.67;;;;;;;;;;10575372;28;20598;-85
2023/06/28 13:21:51;;;;;;;;;;;;;;;;;;;;;
2023/06/28 13:38:31;;;;;;;5.65;3.95;;;;;;;;;;10371954;28;20026;-86
2023/06/28 13:55:22;;;;;;;12.10;4.75;;;;;;;;;;10277462;28;20022;-88
2023/06/28 14:01:02;;;;;;;7.25;4.13;;;;;;;;;;10357903;28;20030;-86
2023/06/28 14:06:34;;;;;;;10.02;4.25;;;;;;;;;;10480665;28;20031;-87
2023/06/28 14:11:35;;;;;;;8.32;4.93;;;;;;;;;;10582827;28;20031;-86
2023/06/28 14:16:36;;;;;;;8.52;4.97;;;;;;;;;;10574259;28;20031;-88
2023/06/28 14:21:37;;;;;;;9.23;5.38;;;;;;;;;;10573716;28;20026;-88
2023/06/28 14:26:41;;;;;;;10.32;4.72;;;;;;;;;;10574042;28;20126;-88
2023/06/28 14:31:42;;;;;;;10.55;4.40;;;;;;;;;;10574315;28;20123;-89
2023/06/28 14:36:43;;;;;;;7.82;4.40;;;;;;;;;;10574495;28;20040;-89
2023/06/28 14:41:45;;;;;;;10.15;5.20;;;;;;;;;;10593865;28;20088;-88
2023/06/28 14:46:46;;;;;;;8.63;5.10;;;;;;;;;;10606681;27;20016;-86
2023/06/28 14:51:47;;;;;;;8.95;5.40;;;;;;;;;;10602363;28;20027;-88
2023/06/28 14:56:54;;;;;;;9.32;5.70;;;;;;;;;;10578819;28;20035;-87
2023/06/28 15:01:55;;;;;;;9.23;4.47;;;;;;;;;;10575150;28;20019;-87
2023/06/28 15:06:56;;;;;;;10.43;4.25;;;;;;;;;;10573449;28;20054;-86
2023/06/28 15:11:58;;;;;;;8.50;4.18;;;;;;;;;;10575132;28;20035;-87
2023/06/28 15:16:59;;;;;;;9.52;5.43;;;;;;;;;;10576028;28;20055;-86
2023/06/28 15:22:00;;;;;;;7.82;4.45;;;;;;;;;;10572950;28;20051;-87
2023/06/28 15:27:01;;;;;;;9.77;6.22;;;;;;;;;;10571844;28;20055;-87
2023/06/28 15:32:02;;;;;;;8.25;5.55;;;;;;;;;;10572757;28;20393;-88
2023/06/28 15:37:03;;;;;;;13.55;6.20;;;;;;;;;;10582845;27;20059;-90
2023/06/28 15:42:04;;;;;;;8.38;5.53;;;;;;;;;;10606200;28;20019;-89
2023/06/28 15:47:07;;;;;;;8.15;4.53;;;;;;;;;;10590042;28;20031;-89
2023/06/28 15:52:08;;;;;;;7.25;3.88;;;;;;;;;;10592082;28;20023;-88
2023/06/28 15:57:10;;;;;;;7.90;4.18;;;;;;;;;;10586467;28;20089;-88
2023/06/28 16:02:13;;;;;;;9.50;4.55;;;;;;;;;;10571541;28;20022;-88
2023/06/28 16:07:15;;;;;;;5.28;3.60;;;;;;;;;;10572552;28;20043;-87
2023/06/28 16:12:16;;;;;;;8.98;4.03;;;;;;;;;;10571871;28;20118;-88
2023/06/28 16:17:20;;;;;;;6.88;3.65;;;;;;;;;;10570759;28;20030;-88
2023/06/28 16:22:21;;;;;;;5.95;3.55;;;;;;;;;;10567911;28;20027;-86
2023/06/28 16:27:22;;;;;;;6.75;3.90;;;;;;;;;;10573116;28;20469;-85
2023/06/28 16:32:23;;;;;;;4.68;3.42;;;;;;;;;;10579792;28;20035;-82
2023/06/28 16:37:24;;;;;;;10.07;4.30;;;;;;;;;;10596764;28;20032;-84
2023/06/28 16:42:25;;;;;;;7.70;3.25;;;;;;;;;;10594721;28;20004;-84
2023/06/28 16:47:26;;;;;;;9.77;4.25;;;;;;;;;;10586558;28;20046;-84
2023/06/28 16:52:27;;;;;;;9.45;4.30;;;;;;;;;;10580599;28;20059;-84
2023/06/28 16:57:28;;;;;;;9.60;4.30;;;;;;;;;;10580799;28;20028;-84
2023/06/28 17:02:30;;;;;;;9.52;3.97;;;;;;;;;;10580850;28;20063;-84
2023/06/28 17:07:31;;;;;;;6.22;3.78;;;;;;;;;;10577579;28;20024;-84
2023/06/28 17:12:32;;;;;;;5.60;3.17;;;;;;;;;;10580134;28;20485;-84
2023/06/28 17:17:33;;;;;;;8.48;4.30;;;;;;;;;;10583304;28;20173;-83
2023/06/28 17:22:35;;;;;;;8.52;4.22;;;;;;;;;;10586534;28;20131;-84
2023/06/28 17:27:36;;;;;;;9.85;4.13;;;;;;;;;;10608140;28;20034;-84
2023/06/28 17:32:37;;;;;;;9.50;4.47;;;;;;;;;;10578657;28;20028;-84
2023/06/28 17:37:38;;;;;;;6.95;3.55;;;;;;;;;;10579208;28;20095;-84
2023/06/28 17:42:39;;;;;;;6.93;3.90;;;;;;;;;;10578560;28;20075;-83
2023/06/28 17:47:42;;;;;;;7.03;3.55;;;;;;;;;;10579294;28;20073;-84
2023/06/28 17:52:43;;;;;;;43.03;38.63;;;;;;;;;;10574712;28;20034;-84
2023/06/28 17:57:46;;;;;;;15.13;12.30;;;;;;;;;;10565312;28;20034;-87
2023/06/28 18:02:47;;;;;;;5.60;4.30;;;;;;;;;;10582360;28;20043;-87
2023/06/28 18:07:49;;;;;;;5.95;4.10;;;;;;;;;;10584944;28;20054;-88
2023/06/28 18:12:50;;;;;;;5.80;3.80;;;;;;;;;;10569119;28;20032;-87
2023/06/28 18:17:51;;;;;;;6.40;3.90;;;;;;;;;;10566869;28;20076;-88
2023/06/28 18:22:52;;;;;;;6.63;3.92;;;;;;;;;;10566426;28;20038;-88
2023/06/28 18:27:53;;;;;;;8.13;3.95;;;;;;;;;;10566742;28;20097;-87
2023/06/28 18:32:54;;;;;;;8.02;3.83;;;;;;;;;;10563935;28;20144;-87
2023/06/28 18:37:55;;;;;;;8.55;3.92;;;;;;;;;;10564067;28;20024;-87
2023/06/28 18:42:56;;;;;;;9.18;3.78;;;;;;;;;;10572609;28;20058;-87
2023/06/28 18:47:57;;;;;;;7.25;3.60;;;;;;;;;;10581367;28;20104;-88
2023/06/28 18:52:58;;;;;;;7.25;4.22;;;;;;;;;;10563666;28;20447;-87
2023/06/28 18:57:59;;;;;;;8.20;3.95;;;;;;;;;;10591559;28;20114;-88
2023/06/28 19:03:00;;;;;;;6.57;3.85;;;;;;;;;;10589374;28;20019;-88
2023/06/28 19:08:01;;;;;;;7.22;3.40;;;;;;;;;;10570725;28;20599;-88
2023/06/28 19:13:02;;;;;;;6.18;3.90;;;;;;;;;;10589199;28;20108;-87
